sensor_id;sensor_type;location;lat;lon;timestamp;P1;durP1;ratioP1;P2;durP2;ratioP2
16286;SDS011;8251;53.568;10.018;2022-09-13T00:01:35;4.50;;;2.87;;
16286;SDS011;8251;53.568;10.018;2022-09-13T00:04:02;3.13;;;2.73;;
16286;SDS011;8251;53.568;10.018;2022-09-13T00:06:29;2.93;;;2.60;;
16286;SDS011;8251;53.568;10.018;2022-09-13T00:08:56;3.80;;;2.70;;
16286;SDS011;8251;53.568;10.018;2022-09-13T00:11:25;3.13;;;2.70;;
16286;SDS011;8251;53.568;10.018;2022-09-13T00:13:55;3.77;;;2.57;;
16286;SDS011;8251;53.568;10.018;2022-09-13T00:16:25;3.63;;;2.10;;
16286;SDS011;8251;53.568;10.018;2022-09-13T00:18:53;3.33;;;2.53;;
16286;SDS011;8251;53.568;10.018;2022-09-13T00:21:21;3.70;;;2.77;;
16286;SDS011;8251;53.568;10.018;2022-09-13T00:23:49;2.70;;;2.27;;
16286;SDS011;8251;53.568;10.018;2022-09-13T00:26:18;2.60;;;2.40;;
16286;SDS011;8251;53.568;10.018;2022-09-13T00:28:48;2.37;;;2.17;;
16286;SDS011;8251;53.568;10.018;2022-09-13T00:31:16;2.93;;;2.60;;
16286;SDS011;8251;53.568;10.018;2022-09-13T00:33:45;3.47;;;2.43;;
16286;SDS011;8251;53.568;10.018;2022-09-13T00:36:12;4.03;;;2.37;;
16286;SDS011;8251;53.568;10.018;2022-09-13T00:38:40;3.63;;;2.57;;
16286;SDS011;8251;53.568;10.018;2022-09-13T00:41:09;5.63;;;3.00;;
16286;SDS011;8251;53.568;10.018;2022-09-13T00:43:41;4.07;;;3.17;;
16286;SDS011;8251;53.568;10.018;2022-09-13T00:46:12;8.37;;;3.63;;
16286;SDS011;8251;53.568;10.018;2022-09-13T00:48:44;5.27;;;2.90;;
16286;SDS011;8251;53.568;10.018;2022-09-13T00:51:13;4.40;;;3.07;;
16286;SDS011;8251;53.568;10.018;2022-09-13T00:53:41;6.43;;;4.17;;
16286;SDS011;8251;53.568;10.018;2022-09-13T00:56:13;3.83;;;3.20;;
16286;SDS011;8251;53.568;10.018;2022-09-13T00:58:45;3.20;;;2.90;;
16286;SDS011;8251;53.568;10.018;2022-09-13T01:01:15;4.07;;;2.97;;
16286;SDS011;8251;53.568;10.018;2022-09-13T01:03:45;5.13;;;3.03;;
16286;SDS011;8251;53.568;10.018;2022-09-13T01:06:14;5.63;;;2.87;;
16286;SDS011;8251;53.568;10.018;2022-09-13T01:08:44;5.90;;;3.77;;
16286;SDS011;8251;53.568;10.018;2022-09-13T01:11:15;5.20;;;3.33;;
16286;SDS011;8251;53.568;10.018;2022-09-13T01:13:46;3.97;;;3.37;;
16286;SDS011;8251;53.568;10.018;2022-09-13T01:16:15;7.93;;;3.17;;
16286;SDS011;8251;53.568;10.018;2022-09-13T01:18:42;3.93;;;3.23;;
16286;SDS011;8251;53.568;10.018;2022-09-13T01:24:24;5.50;;;4.03;;
16286;SDS011;8251;53.568;10.018;2022-09-13T01:27:26;5.50;;;3.13;;
16286;SDS011;8251;53.568;10.018;2022-09-13T01:32:59;6.40;;;3.70;;
16286;SDS011;8251;53.568;10.018;2022-09-13T01:35:46;7.53;;;3.73;;
16286;SDS011;8251;53.568;10.018;2022-09-13T01:38:36;6.60;;;3.93;;
16286;SDS011;8251;53.568;10.018;2022-09-13T01:41:15;7.37;;;4.50;;
16286;SDS011;8251;53.568;10.018;2022-09-13T01:44:00;4.77;;;3.70;;
16286;SDS011;8251;53.568;10.018;2022-09-13T01:46:37;6.57;;;4.30;;
16286;SDS011;8251;53.568;10.018;2022-09-13T01:49:13;7.27;;;4.23;;
16286;SDS011;8251;53.568;10.018;2022-09-13T01:51:45;6.90;;;4.30;;
16286;SDS011;8251;53.568;10.018;2022-09-13T01:54:16;7.27;;;4.77;;
16286;SDS011;8251;53.568;10.018;2022-09-13T01:56:49;5.50;;;4.40;;
16286;SDS011;8251;53.568;10.018;2022-09-13T01:59:20;7.33;;;4.43;;
16286;SDS011;8251;53.568;10.018;2022-09-13T02:01:53;6.13;;;4.40;;
16286;SDS011;8251;53.568;10.018;2022-09-13T02:04:25;6.10;;;4.40;;
16286;SDS011;8251;53.568;10.018;2022-09-13T02:06:57;6.37;;;4.43;;
16286;SDS011;8251;53.568;10.018;2022-09-13T02:09:29;5.27;;;3.90;;
16286;SDS011;8251;53.568;10.018;2022-09-13T02:12:01;5.30;;;3.87;;
16286;SDS011;8251;53.568;10.018;2022-09-13T02:14:33;4.97;;;3.67;;
16286;SDS011;8251;53.568;10.018;2022-09-13T02:17:04;6.47;;;4.27;;
16286;SDS011;8251;53.568;10.018;2022-09-13T02:19:35;7.37;;;4.40;;
16286;SDS011;8251;53.568;10.018;2022-09-13T02:22:05;7.00;;;4.57;;
16286;SDS011;8251;53.568;10.018;2022-09-13T02:24:37;5.63;;;3.83;;
16286;SDS011;8251;53.568;10.018;2022-09-13T02:27:07;4.97;;;4.03;;
16286;SDS011;8251;53.568;10.018;2022-09-13T02:29:38;5.30;;;3.90;;
16286;SDS011;8251;53.568;10.018;2022-09-13T02:32:09;7.50;;;4.30;;
16286;SDS011;8251;53.568;10.018;2022-09-13T02:34:42;6.30;;;4.30;;
16286;SDS011;8251;53.568;10.018;2022-09-13T02:37:12;7.77;;;4.40;;
16286;SDS011;8251;53.568;10.018;2022-09-13T02:39:40;6.90;;;4.27;;
16286;SDS011;8251;53.568;10.018;2022-09-13T02:42:12;6.57;;;4.43;;
16286;SDS011;8251;53.568;10.018;2022-09-13T02:44:44;10.67;;;4.37;;
16286;SDS011;8251;53.568;10.018;2022-09-13T02:47:28;4.53;;;4.00;;
16286;SDS011;8251;53.568;10.018;2022-09-13T02:50:06;6.97;;;5.03;;
16286;SDS011;8251;53.568;10.018;2022-09-13T02:52:45;6.90;;;5.03;;
16286;SDS011;8251;53.568;10.018;2022-09-13T02:55:17;6.20;;;4.40;;
16286;SDS011;8251;53.568;10.018;2022-09-13T02:57:51;7.10;;;4.30;;
16286;SDS011;8251;53.568;10.018;2022-09-13T03:00:24;9.10;;;4.83;;
16286;SDS011;8251;53.568;10.018;2022-09-13T03:02:53;8.00;;;4.37;;
16286;SDS011;8251;53.568;10.018;2022-09-13T03:05:24;4.77;;;4.33;;
16286;SDS011;8251;53.568;10.018;2022-09-13T03:07:50;5.67;;;4.47;;
16286;SDS011;8251;53.568;10.018;2022-09-13T03:10:18;5.97;;;4.17;;
16286;SDS011;8251;53.568;10.018;2022-09-13T03:12:52;6.73;;;4.50;;
16286;SDS011;8251;53.568;10.018;2022-09-13T03:15:32;6.30;;;4.70;;
16286;SDS011;8251;53.568;10.018;2022-09-13T03:18:16;5.80;;;4.43;;
16286;SDS011;8251;53.568;10.018;2022-09-13T03:20:56;7.77;;;5.50;;
16286;SDS011;8251;53.568;10.018;2022-09-13T03:23:37;6.70;;;4.77;;
16286;SDS011;8251;53.568;10.018;2022-09-13T03:26:18;9.50;;;5.53;;
16286;SDS011;8251;53.568;10.018;2022-09-13T03:29:01;7.17;;;4.87;;
16286;SDS011;8251;53.568;10.018;2022-09-13T03:31:37;10.33;;;5.00;;
16286;SDS011;8251;53.568;10.018;2022-09-13T03:34:15;11.00;;;5.80;;
16286;SDS011;8251;53.568;10.018;2022-09-13T03:36:50;8.33;;;5.30;;
16286;SDS011;8251;53.568;10.018;2022-09-13T03:39:23;7.63;;;5.37;;
16286;SDS011;8251;53.568;10.018;2022-09-13T03:42:01;7.23;;;5.70;;
16286;SDS011;8251;53.568;10.018;2022-09-13T03:44:35;9.23;;;6.47;;
16286;SDS011;8251;53.568;10.018;2022-09-13T03:47:05;13.83;;;8.20;;
16286;SDS011;8251;53.568;10.018;2022-09-13T03:49:34;9.17;;;7.00;;
16286;SDS011;8251;53.568;10.018;2022-09-13T03:52:04;8.10;;;6.60;;
16286;SDS011;8251;53.568;10.018;2022-09-13T03:54:31;11.07;;;7.03;;
16286;SDS011;8251;53.568;10.018;2022-09-13T03:57:06;13.50;;;7.37;;
16286;SDS011;8251;53.568;10.018;2022-09-13T03:59:34;14.73;;;7.67;;
16286;SDS011;8251;53.568;10.018;2022-09-13T04:02:02;10.77;;;8.00;;
16286;SDS011;8251;53.568;10.018;2022-09-13T04:04:35;11.20;;;7.83;;
16286;SDS011;8251;53.568;10.018;2022-09-13T04:07:02;11.97;;;8.03;;
16286;SDS011;8251;53.568;10.018;2022-09-13T04:09:29;9.47;;;7.30;;
16286;SDS011;8251;53.568;10.018;2022-09-13T04:11:56;12.43;;;9.07;;
16286;SDS011;8251;53.568;10.018;2022-09-13T04:14:23;12.93;;;9.00;;
16286;SDS011;8251;53.568;10.018;2022-09-13T04:16:52;11.97;;;8.33;;
16286;SDS011;8251;53.568;10.018;2022-09-13T04:19:19;13.47;;;9.83;;
16286;SDS011;8251;53.568;10.018;2022-09-13T04:21:49;17.60;;;9.87;;
16286;SDS011;8251;53.568;10.018;2022-09-13T04:24:17;13.30;;;8.83;;
16286;SDS011;8251;53.568;10.018;2022-09-13T04:26:47;18.27;;;10.03;;
16286;SDS011;8251;53.568;10.018;2022-09-13T04:29:15;16.00;;;9.47;;
16286;SDS011;8251;53.568;10.018;2022-09-13T04:31:42;16.57;;;10.37;;
16286;SDS011;8251;53.568;10.018;2022-09-13T04:34:09;19.57;;;10.20;;
16286;SDS011;8251;53.568;10.018;2022-09-13T04:36:36;16.53;;;10.53;;
16286;SDS011;8251;53.568;10.018;2022-09-13T04:39:04;16.30;;;10.30;;
16286;SDS011;8251;53.568;10.018;2022-09-13T04:41:32;17.07;;;10.20;;
16286;SDS011;8251;53.568;10.018;2022-09-13T04:43:59;21.00;;;11.53;;
16286;SDS011;8251;53.568;10.018;2022-09-13T04:46:26;16.47;;;12.07;;
16286;SDS011;8251;53.568;10.018;2022-09-13T04:48:53;17.73;;;11.13;;
16286;SDS011;8251;53.568;10.018;2022-09-13T04:51:21;17.57;;;11.57;;
16286;SDS011;8251;53.568;10.018;2022-09-13T04:53:50;15.97;;;10.53;;
16286;SDS011;8251;53.568;10.018;2022-09-13T04:56:19;15.67;;;10.20;;
16286;SDS011;8251;53.568;10.018;2022-09-13T04:58:47;18.77;;;10.40;;
16286;SDS011;8251;53.568;10.018;2022-09-13T05:01:16;15.53;;;10.60;;
16286;SDS011;8251;53.568;10.018;2022-09-13T05:03:43;18.70;;;11.43;;
16286;SDS011;8251;53.568;10.018;2022-09-13T05:06:11;18.23;;;10.27;;
16286;SDS011;8251;53.568;10.018;2022-09-13T05:08:42;18.80;;;10.87;;
16286;SDS011;8251;53.568;10.018;2022-09-13T05:11:09;18.63;;;12.03;;
16286;SDS011;8251;53.568;10.018;2022-09-13T05:13:37;17.17;;;11.27;;
16286;SDS011;8251;53.568;10.018;2022-09-13T05:16:04;20.20;;;12.00;;
16286;SDS011;8251;53.568;10.018;2022-09-13T05:18:33;23.17;;;12.10;;
16286;SDS011;8251;53.568;10.018;2022-09-13T05:21:03;18.77;;;12.70;;
16286;SDS011;8251;53.568;10.018;2022-09-13T05:23:31;18.93;;;11.47;;
16286;SDS011;8251;53.568;10.018;2022-09-13T05:26:00;18.37;;;12.10;;
16286;SDS011;8251;53.568;10.018;2022-09-13T05:28:29;17.27;;;12.03;;
16286;SDS011;8251;53.568;10.018;2022-09-13T05:30:59;20.20;;;11.93;;
16286;SDS011;8251;53.568;10.018;2022-09-13T05:33:28;20.87;;;13.10;;
16286;SDS011;8251;53.568;10.018;2022-09-13T05:35:56;23.70;;;14.30;;
16286;SDS011;8251;53.568;10.018;2022-09-13T05:38:23;19.87;;;12.30;;
16286;SDS011;8251;53.568;10.018;2022-09-13T05:40:52;17.33;;;11.93;;
16286;SDS011;8251;53.568;10.018;2022-09-13T05:43:21;22.20;;;13.10;;
16286;SDS011;8251;53.568;10.018;2022-09-13T05:45:48;22.37;;;13.17;;
16286;SDS011;8251;53.568;10.018;2022-09-13T05:48:17;17.80;;;12.90;;
16286;SDS011;8251;53.568;10.018;2022-09-13T05:50:44;22.13;;;13.03;;
16286;SDS011;8251;53.568;10.018;2022-09-13T05:53:11;17.87;;;12.43;;
16286;SDS011;8251;53.568;10.018;2022-09-13T05:55:38;17.63;;;11.37;;
16286;SDS011;8251;53.568;10.018;2022-09-13T05:58:05;19.93;;;11.00;;
16286;SDS011;8251;53.568;10.018;2022-09-13T06:00:32;18.47;;;11.10;;
16286;SDS011;8251;53.568;10.018;2022-09-13T06:02:58;19.67;;;11.63;;
16286;SDS011;8251;53.568;10.018;2022-09-13T06:05:27;17.80;;;11.47;;
16286;SDS011;8251;53.568;10.018;2022-09-13T06:07:54;18.63;;;11.43;;
16286;SDS011;8251;53.568;10.018;2022-09-13T06:10:21;19.73;;;11.83;;
16286;SDS011;8251;53.568;10.018;2022-09-13T06:12:49;18.10;;;11.57;;
16286;SDS011;8251;53.568;10.018;2022-09-13T06:15:16;15.97;;;11.93;;
16286;SDS011;8251;53.568;10.018;2022-09-13T06:17:43;18.23;;;11.73;;
16286;SDS011;8251;53.568;10.018;2022-09-13T06:20:11;18.03;;;11.63;;
16286;SDS011;8251;53.568;10.018;2022-09-13T06:22:39;17.37;;;11.40;;
16286;SDS011;8251;53.568;10.018;2022-09-13T06:25:06;19.23;;;12.00;;
16286;SDS011;8251;53.568;10.018;2022-09-13T06:27:34;19.03;;;12.17;;
16286;SDS011;8251;53.568;10.018;2022-09-13T06:30:02;21.00;;;12.00;;
16286;SDS011;8251;53.568;10.018;2022-09-13T06:32:29;18.40;;;12.43;;
16286;SDS011;8251;53.568;10.018;2022-09-13T06:34:56;17.43;;;12.00;;
16286;SDS011;8251;53.568;10.018;2022-09-13T06:37:23;19.93;;;12.07;;
16286;SDS011;8251;53.568;10.018;2022-09-13T06:39:54;18.60;;;12.73;;
16286;SDS011;8251;53.568;10.018;2022-09-13T06:42:27;17.97;;;12.10;;
16286;SDS011;8251;53.568;10.018;2022-09-13T06:45:08;17.53;;;11.23;;
16286;SDS011;8251;53.568;10.018;2022-09-13T06:47:43;15.37;;;10.97;;
16286;SDS011;8251;53.568;10.018;2022-09-13T06:50:18;16.70;;;10.87;;
16286;SDS011;8251;53.568;10.018;2022-09-13T06:52:44;19.50;;;11.90;;
16286;SDS011;8251;53.568;10.018;2022-09-13T06:55:13;15.03;;;10.97;;
16286;SDS011;8251;53.568;10.018;2022-09-13T06:57:40;22.93;;;12.37;;
16286;SDS011;8251;53.568;10.018;2022-09-13T07:00:07;16.57;;;11.23;;
16286;SDS011;8251;53.568;10.018;2022-09-13T07:02:35;16.63;;;11.60;;
16286;SDS011;8251;53.568;10.018;2022-09-13T07:05:02;18.77;;;11.23;;
16286;SDS011;8251;53.568;10.018;2022-09-13T07:07:30;19.13;;;11.83;;
16286;SDS011;8251;53.568;10.018;2022-09-13T07:09:57;17.47;;;11.00;;
16286;SDS011;8251;53.568;10.018;2022-09-13T07:12:26;14.40;;;10.53;;
16286;SDS011;8251;53.568;10.018;2022-09-13T07:14:53;14.43;;;10.27;;
16286;SDS011;8251;53.568;10.018;2022-09-13T07:17:20;16.00;;;9.53;;
16286;SDS011;8251;53.568;10.018;2022-09-13T07:19:47;15.33;;;10.20;;
16286;SDS011;8251;53.568;10.018;2022-09-13T07:22:14;16.33;;;10.70;;
16286;SDS011;8251;53.568;10.018;2022-09-13T07:24:41;16.37;;;10.33;;
16286;SDS011;8251;53.568;10.018;2022-09-13T07:27:08;15.77;;;10.00;;
16286;SDS011;8251;53.568;10.018;2022-09-13T07:29:39;16.87;;;8.97;;
16286;SDS011;8251;53.568;10.018;2022-09-13T07:32:06;17.57;;;10.57;;
16286;SDS011;8251;53.568;10.018;2022-09-13T07:34:35;14.13;;;10.50;;
16286;SDS011;8251;53.568;10.018;2022-09-13T07:37:06;17.33;;;9.63;;
16286;SDS011;8251;53.568;10.018;2022-09-13T07:39:37;14.97;;;10.17;;
16286;SDS011;8251;53.568;10.018;2022-09-13T07:42:07;17.00;;;9.20;;
16286;SDS011;8251;53.568;10.018;2022-09-13T07:44:42;16.50;;;8.67;;
16286;SDS011;8251;53.568;10.018;2022-09-13T07:47:10;13.87;;;9.10;;
16286;SDS011;8251;53.568;10.018;2022-09-13T07:49:42;11.23;;;8.17;;
16286;SDS011;8251;53.568;10.018;2022-09-13T07:52:11;16.73;;;7.93;;
16286;SDS011;8251;53.568;10.018;2022-09-13T07:54:38;12.70;;;7.30;;
16286;SDS011;8251;53.568;10.018;2022-09-13T07:57:05;11.70;;;7.23;;
16286;SDS011;8251;53.568;10.018;2022-09-13T07:59:32;14.07;;;6.53;;
16286;SDS011;8251;53.568;10.018;2022-09-13T08:02:00;10.73;;;6.73;;
16286;SDS011;8251;53.568;10.018;2022-09-13T08:04:27;12.23;;;5.73;;
16286;SDS011;8251;53.568;10.018;2022-09-13T08:06:54;10.77;;;6.73;;
16286;SDS011;8251;53.568;10.018;2022-09-13T08:09:21;14.53;;;5.93;;
16286;SDS011;8251;53.568;10.018;2022-09-13T08:11:48;12.17;;;5.07;;
16286;SDS011;8251;53.568;10.018;2022-09-13T08:14:17;7.10;;;4.60;;
16286;SDS011;8251;53.568;10.018;2022-09-13T08:16:45;7.60;;;3.63;;
16286;SDS011;8251;53.568;10.018;2022-09-13T08:19:16;8.93;;;4.83;;
16286;SDS011;8251;53.568;10.018;2022-09-13T08:21:44;9.10;;;4.00;;
16286;SDS011;8251;53.568;10.018;2022-09-13T08:24:12;9.80;;;3.57;;
16286;SDS011;8251;53.568;10.018;2022-09-13T08:26:41;9.30;;;3.53;;
16286;SDS011;8251;53.568;10.018;2022-09-13T08:29:10;8.67;;;3.23;;
16286;SDS011;8251;53.568;10.018;2022-09-13T08:31:43;6.80;;;3.40;;
16286;SDS011;8251;53.568;10.018;2022-09-13T08:34:16;6.30;;;2.90;;
16286;SDS011;8251;53.568;10.018;2022-09-13T08:36:45;6.43;;;2.43;;
16286;SDS011;8251;53.568;10.018;2022-09-13T08:39:12;5.00;;;2.23;;
16286;SDS011;8251;53.568;10.018;2022-09-13T08:41:51;5.07;;;2.83;;
16286;SDS011;8251;53.568;10.018;2022-09-13T08:44:26;9.53;;;2.17;;
16286;SDS011;8251;53.568;10.018;2022-09-13T08:46:58;8.57;;;1.97;;
16286;SDS011;8251;53.568;10.018;2022-09-13T08:49:39;8.37;;;1.63;;
16286;SDS011;8251;53.568;10.018;2022-09-13T08:52:14;4.30;;;1.70;;
16286;SDS011;8251;53.568;10.018;2022-09-13T08:54:46;5.73;;;2.07;;
16286;SDS011;8251;53.568;10.018;2022-09-13T08:57:21;5.67;;;1.53;;
16286;SDS011;8251;53.568;10.018;2022-09-13T08:59:59;5.03;;;1.43;;
16286;SDS011;8251;53.568;10.018;2022-09-13T09:05:24;4.73;;;1.30;;
16286;SDS011;8251;53.568;10.018;2022-09-13T09:07:56;7.47;;;2.20;;
16286;SDS011;8251;53.568;10.018;2022-09-13T09:10:27;6.47;;;2.37;;
16286;SDS011;8251;53.568;10.018;2022-09-13T09:12:58;3.07;;;1.53;;
16286;SDS011;8251;53.568;10.018;2022-09-13T09:15:33;3.90;;;1.40;;
16286;SDS011;8251;53.568;10.018;2022-09-13T09:18:05;4.40;;;1.60;;
16286;SDS011;8251;53.568;10.018;2022-09-13T09:20:46;6.60;;;1.53;;
16286;SDS011;8251;53.568;10.018;2022-09-13T09:23:15;4.73;;;1.50;;
16286;SDS011;8251;53.568;10.018;2022-09-13T09:25:44;8.67;;;1.33;;
16286;SDS011;8251;53.568;10.018;2022-09-13T09:28:13;6.63;;;1.40;;
16286;SDS011;8251;53.568;10.018;2022-09-13T09:30:44;5.53;;;1.07;;
16286;SDS011;8251;53.568;10.018;2022-09-13T09:33:19;6.23;;;1.53;;
16286;SDS011;8251;53.568;10.018;2022-09-13T09:35:56;6.57;;;1.60;;
16286;SDS011;8251;53.568;10.018;2022-09-13T09:38:31;2.83;;;1.10;;
16286;SDS011;8251;53.568;10.018;2022-09-13T09:41:05;9.57;;;1.47;;
16286;SDS011;8251;53.568;10.018;2022-09-13T09:43:44;4.43;;;1.23;;
16286;SDS011;8251;53.568;10.018;2022-09-13T09:46:16;3.63;;;1.00;;
16286;SDS011;8251;53.568;10.018;2022-09-13T09:48:51;4.97;;;1.87;;
16286;SDS011;8251;53.568;10.018;2022-09-13T09:51:23;6.75;;;0.95;;
16286;SDS011;8251;53.568;10.018;2022-09-13T09:53:56;10.85;;;1.10;;
16286;SDS011;8251;53.568;10.018;2022-09-13T09:56:30;6.47;;;0.80;;
16286;SDS011;8251;53.568;10.018;2022-09-13T09:58:58;8.00;;;1.33;;
16286;SDS011;8251;53.568;10.018;2022-09-13T10:01:27;6.55;;;1.40;;
16286;SDS011;8251;53.568;10.018;2022-09-13T10:04:00;4.78;;;0.90;;
16286;SDS011;8251;53.568;10.018;2022-09-13T10:06:34;3.35;;;1.05;;
16286;SDS011;8251;53.568;10.018;2022-09-13T10:09:03;5.10;;;1.10;;
16286;SDS011;8251;53.568;10.018;2022-09-13T10:11:38;5.38;;;1.10;;
16286;SDS011;8251;53.568;10.018;2022-09-13T10:14:25;11.07;;;2.00;;
16286;SDS011;8251;53.568;10.018;2022-09-13T10:17:05;5.57;;;1.73;;
16286;SDS011;8251;53.568;10.018;2022-09-13T10:19:40;5.32;;;1.88;;
16286;SDS011;8251;53.568;10.018;2022-09-13T10:22:17;3.53;;;2.17;;
16286;SDS011;8251;53.568;10.018;2022-09-13T10:24:44;4.68;;;1.70;;
16286;SDS011;8251;53.568;10.018;2022-09-13T10:27:25;5.57;;;1.58;;
16286;SDS011;8251;53.568;10.018;2022-09-13T10:29:58;4.63;;;1.52;;
16286;SDS011;8251;53.568;10.018;2022-09-13T10:32:30;12.25;;;1.98;;
16286;SDS011;8251;53.568;10.018;2022-09-13T10:34:59;4.72;;;1.67;;
16286;SDS011;8251;53.568;10.018;2022-09-13T10:37:34;4.55;;;1.63;;
16286;SDS011;8251;53.568;10.018;2022-09-13T10:40:02;3.00;;;0.90;;
16286;SDS011;8251;53.568;10.018;2022-09-13T10:42:34;6.07;;;1.70;;
16286;SDS011;8251;53.568;10.018;2022-09-13T10:45:04;4.75;;;2.17;;
16286;SDS011;8251;53.568;10.018;2022-09-13T10:47:33;7.18;;;1.75;;
16286;SDS011;8251;53.568;10.018;2022-09-13T10:50:17;5.68;;;1.60;;
16286;SDS011;8251;53.568;10.018;2022-09-13T10:52:46;7.82;;;2.10;;
16286;SDS011;8251;53.568;10.018;2022-09-13T10:58:14;5.40;;;2.10;;
16286;SDS011;8251;53.568;10.018;2022-09-13T11:04:04;11.63;;;4.05;;
16286;SDS011;8251;53.568;10.018;2022-09-13T11:07:03;2.90;;;1.10;;
16286;SDS011;8251;53.568;10.018;2022-09-13T11:10:08;8.10;;;2.10;;
16286;SDS011;8251;53.568;10.018;2022-09-13T11:12:46;6.15;;;1.50;;
16286;SDS011;8251;53.568;10.018;2022-09-13T11:15:25;6.28;;;1.60;;
16286;SDS011;8251;53.568;10.018;2022-09-13T11:18:07;3.40;;;1.20;;
16286;SDS011;8251;53.568;10.018;2022-09-13T11:20:46;6.20;;;2.10;;
16286;SDS011;8251;53.568;10.018;2022-09-13T11:23:35;6.55;;;1.60;;
16286;SDS011;8251;53.568;10.018;2022-09-13T11:26:28;4.85;;;1.30;;
16286;SDS011;8251;53.568;10.018;2022-09-13T11:29:15;7.00;;;1.50;;
16286;SDS011;8251;53.568;10.018;2022-09-13T11:31:57;5.57;;;1.80;;
16286;SDS011;8251;53.568;10.018;2022-09-13T11:34:31;2.90;;;1.65;;
16286;SDS011;8251;53.568;10.018;2022-09-13T11:37:18;7.45;;;3.40;;
16286;SDS011;8251;53.568;10.018;2022-09-13T11:40:10;7.35;;;2.40;;
16286;SDS011;8251;53.568;10.018;2022-09-13T11:42:57;5.63;;;1.90;;
16286;SDS011;8251;53.568;10.018;2022-09-13T11:45:30;3.72;;;1.73;;
16286;SDS011;8251;53.568;10.018;2022-09-13T11:48:18;3.30;;;1.98;;
16286;SDS011;8251;53.568;10.018;2022-09-13T11:50:56;4.75;;;1.67;;
16286;SDS011;8251;53.568;10.018;2022-09-13T11:53:37;6.05;;;2.13;;
16286;SDS011;8251;53.568;10.018;2022-09-13T11:56:24;7.70;;;1.70;;
16286;SDS011;8251;53.568;10.018;2022-09-13T11:59:00;2.63;;;1.08;;
16286;SDS011;8251;53.568;10.018;2022-09-13T12:01:36;3.17;;;1.42;;
16286;SDS011;8251;53.568;10.018;2022-09-13T12:04:08;6.18;;;1.88;;
16286;SDS011;8251;53.568;10.018;2022-09-13T12:06:41;3.67;;;1.58;;
16286;SDS011;8251;53.568;10.018;2022-09-13T12:09:11;6.22;;;2.25;;
16286;SDS011;8251;53.568;10.018;2022-09-13T12:11:43;5.38;;;1.30;;
16286;SDS011;8251;53.568;10.018;2022-09-13T12:14:16;6.93;;;1.50;;
16286;SDS011;8251;53.568;10.018;2022-09-13T12:16:47;5.35;;;2.00;;
16286;SDS011;8251;53.568;10.018;2022-09-13T12:19:18;9.00;;;1.45;;
16286;SDS011;8251;53.568;10.018;2022-09-13T12:21:48;5.47;;;3.17;;
16286;SDS011;8251;53.568;10.018;2022-09-13T12:24:18;9.48;;;1.95;;
16286;SDS011;8251;53.568;10.018;2022-09-13T12:26:53;7.50;;;1.50;;
16286;SDS011;8251;53.568;10.018;2022-09-13T12:29:28;9.65;;;2.25;;
16286;SDS011;8251;53.568;10.018;2022-09-13T12:32:01;6.22;;;1.45;;
16286;SDS011;8251;53.568;10.018;2022-09-13T12:34:30;3.30;;;1.40;;
16286;SDS011;8251;53.568;10.018;2022-09-13T12:37:08;6.47;;;1.40;;
16286;SDS011;8251;53.568;10.018;2022-09-13T12:39:51;4.75;;;1.80;;
16286;SDS011;8251;53.568;10.018;2022-09-13T12:45:45;5.68;;;1.38;;
16286;SDS011;8251;53.568;10.018;2022-09-13T12:48:47;3.17;;;1.48;;
16286;SDS011;8251;53.568;10.018;2022-09-13T12:51:44;8.05;;;1.83;;
16286;SDS011;8251;53.568;10.018;2022-09-13T12:54:33;5.65;;;1.35;;
16286;SDS011;8251;53.568;10.018;2022-09-13T12:57:24;5.13;;;1.25;;
16286;SDS011;8251;53.568;10.018;2022-09-13T13:00:09;4.07;;;1.48;;
16286;SDS011;8251;53.568;10.018;2022-09-13T13:02:50;7.70;;;1.42;;
16286;SDS011;8251;53.568;10.018;2022-09-13T13:05:27;2.65;;;1.10;;
16286;SDS011;8251;53.568;10.018;2022-09-13T13:07:57;4.25;;;1.40;;
16286;SDS011;8251;53.568;10.018;2022-09-13T13:10:30;7.65;;;1.55;;
16286;SDS011;8251;53.568;10.018;2022-09-13T13:13:09;6.45;;;2.50;;
16286;SDS011;8251;53.568;10.018;2022-09-13T13:15:55;3.72;;;1.48;;
16286;SDS011;8251;53.568;10.018;2022-09-13T13:18:42;6.28;;;1.75;;
16286;SDS011;8251;53.568;10.018;2022-09-13T13:27:32;3.30;;;1.30;;
16286;SDS011;8251;53.568;10.018;2022-09-13T13:33:16;7.20;;;1.75;;
16286;SDS011;8251;53.568;10.018;2022-09-13T13:35:47;2.35;;;1.73;;
16286;SDS011;8251;53.568;10.018;2022-09-13T13:41:05;8.73;;;4.78;;
16286;SDS011;8251;53.568;10.018;2022-09-13T13:43:34;7.13;;;2.85;;
16286;SDS011;8251;53.568;10.018;2022-09-13T13:48:52;2.35;;;1.60;;
16286;SDS011;8251;53.568;10.018;2022-09-13T13:51:25;4.57;;;1.20;;
16286;SDS011;8251;53.568;10.018;2022-09-13T13:53:57;7.28;;;1.25;;
16286;SDS011;8251;53.568;10.018;2022-09-13T13:56:46;4.65;;;1.20;;
16286;SDS011;8251;53.568;10.018;2022-09-13T13:59:15;5.40;;;1.50;;
16286;SDS011;8251;53.568;10.018;2022-09-13T14:01:48;8.18;;;1.45;;
16286;SDS011;8251;53.568;10.018;2022-09-13T14:07:34;5.20;;;1.70;;
16286;SDS011;8251;53.568;10.018;2022-09-13T14:10:23;6.13;;;1.10;;
16286;SDS011;8251;53.568;10.018;2022-09-13T14:12:59;4.23;;;1.27;;
16286;SDS011;8251;53.568;10.018;2022-09-13T14:15:45;11.17;;;1.67;;
16286;SDS011;8251;53.568;10.018;2022-09-13T14:18:28;5.27;;;1.40;;
16286;SDS011;8251;53.568;10.018;2022-09-13T14:21:22;6.10;;;2.37;;
16286;SDS011;8251;53.568;10.018;2022-09-13T14:23:54;4.47;;;1.27;;
16286;SDS011;8251;53.568;10.018;2022-09-13T14:26:44;8.00;;;1.33;;
16286;SDS011;8251;53.568;10.018;2022-09-13T14:29:14;8.13;;;1.63;;
16286;SDS011;8251;53.568;10.018;2022-09-13T14:31:44;6.70;;;1.47;;
16286;SDS011;8251;53.568;10.018;2022-09-13T14:34:22;8.60;;;1.20;;
16286;SDS011;8251;53.568;10.018;2022-09-13T14:36:55;6.77;;;1.60;;
16286;SDS011;8251;53.568;10.018;2022-09-13T14:39:32;7.47;;;2.00;;
16286;SDS011;8251;53.568;10.018;2022-09-13T14:42:10;8.47;;;2.37;;
16286;SDS011;8251;53.568;10.018;2022-09-13T14:44:42;5.47;;;1.60;;
16286;SDS011;8251;53.568;10.018;2022-09-13T14:47:11;5.33;;;1.50;;
16286;SDS011;8251;53.568;10.018;2022-09-13T14:49:42;5.13;;;2.00;;
16286;SDS011;8251;53.568;10.018;2022-09-13T14:52:14;3.67;;;1.70;;
16286;SDS011;8251;53.568;10.018;2022-09-13T14:54:49;5.00;;;1.63;;
16286;SDS011;8251;53.568;10.018;2022-09-13T14:57:22;5.47;;;2.40;;
16286;SDS011;8251;53.568;10.018;2022-09-13T15:00:14;8.20;;;1.87;;
16286;SDS011;8251;53.568;10.018;2022-09-13T15:03:11;7.40;;;1.53;;
16286;SDS011;8251;53.568;10.018;2022-09-13T15:05:57;4.70;;;1.17;;
16286;SDS011;8251;53.568;10.018;2022-09-13T15:08:32;5.83;;;1.30;;
16286;SDS011;8251;53.568;10.018;2022-09-13T15:11:12;10.60;;;2.00;;
16286;SDS011;8251;53.568;10.018;2022-09-13T15:13:41;7.70;;;1.97;;
16286;SDS011;8251;53.568;10.018;2022-09-13T15:16:22;6.23;;;3.43;;
16286;SDS011;8251;53.568;10.018;2022-09-13T15:21:51;7.90;;;2.10;;
16286;SDS011;8251;53.568;10.018;2022-09-13T15:24:20;7.97;;;1.73;;
16286;SDS011;8251;53.568;10.018;2022-09-13T15:27:01;6.00;;;2.47;;
16286;SDS011;8251;53.568;10.018;2022-09-13T15:29:32;4.47;;;1.30;;
16286;SDS011;8251;53.568;10.018;2022-09-13T15:32:04;4.57;;;1.40;;
16286;SDS011;8251;53.568;10.018;2022-09-13T15:34:31;7.13;;;1.60;;
16286;SDS011;8251;53.568;10.018;2022-09-13T15:37:06;8.80;;;2.47;;
16286;SDS011;8251;53.568;10.018;2022-09-13T15:39:41;7.30;;;2.07;;
16286;SDS011;8251;53.568;10.018;2022-09-13T15:42:11;9.83;;;2.03;;
16286;SDS011;8251;53.568;10.018;2022-09-13T15:44:38;5.10;;;2.33;;
16286;SDS011;8251;53.568;10.018;2022-09-13T15:47:07;7.13;;;2.67;;
16286;SDS011;8251;53.568;10.018;2022-09-13T15:49:37;4.50;;;2.30;;
16286;SDS011;8251;53.568;10.018;2022-09-13T15:52:05;4.27;;;1.60;;
16286;SDS011;8251;53.568;10.018;2022-09-13T15:54:33;8.47;;;1.70;;